Scotland, Texas
Current Conditions -  °F | °C
As of 6:55 AM on Friday 19 Dec 2014 (Local Time) from KCWC Reporting Station
Haze Haze  
Wind Chill: 44°   Ceiling: 600
Heat Index: 44°   Visibility: 5mi
Dew Point: 43°   Wind: 3mph
Humidity: 99%   Direction: 360°N
Pressure: 30.22"   Gusts: NA
Location:  33.66°N, 98.47°W
Report Text: KCWC 191255Z AUTO 36003KT 5SM BR BKN006 OVC028 07/06 A3022 RMK AO2 LTG DSNT SE T00650063
Loading
Personal Weather Stations






























Interactive Weather Map New forecast layout! Learn more

10-Day Weather Forecast

Advertisements
Track Severe Weather on mobile